Time;durP1;ratioP1;P1;durP2;ratioP2;P2;SDS_P1;SDS_P2;PMS_P1;PMS_P2;Temp;Humidity;BMP_temperature;BMP_pressure;BME280_temperature;BME280_humidity;BME280_pressure;Samples;Min_cycle;Max_cycle;Signal;HPM_P1;HPM_P2
2021/03/05 00:01:16;;;;;;;13.33;8.83;;;;;;;4.89;82.25;96530.31;5061131;28;20045;-63
2021/03/05 00:03:43;;;;;;;15.48;8.93;;;;;;;4.95;81.46;96542.63;5040281;28;20052;-64
2021/03/05 00:06:10;;;;;;;16.65;9.82;;;;;;;4.75;82.20;96538.44;5064890;28;20048;-64
2021/03/05 00:08:36;;;;;;;16.02;8.80;;;;;;;4.74;81.87;96557.44;5058971;28;20059;-63
2021/03/05 00:11:02;;;;;;;12.82;8.73;;;;;;;4.70;82.12;96549.16;5061705;28;20568;-64
2021/03/05 00:13:28;;;;;;;13.30;8.20;;;;;;;4.62;81.78;96543.88;5041769;28;20061;-64
2021/03/05 00:15:54;;;;;;;14.18;9.60;;;;;;;4.54;82.90;96526.47;5060250;28;20050;-63
2021/03/05 00:18:21;;;;;;;17.05;8.88;;;;;;;4.60;82.17;96556.88;5060882;28;21212;-63
2021/03/05 00:20:52;;;;;;;14.30;9.60;;;;;;;4.54;82.69;96541.94;5061612;28;20187;-63
2021/03/05 00:23:19;;;;;;;12.75;8.15;;;;;;;4.46;82.38;96555.50;5040905;28;20056;-64
2021/03/05 00:25:45;;;;;;;11.68;7.95;;;;;;;4.52;81.99;96559.31;5056574;28;20052;-64
2021/03/05 00:28:12;;;;;;;15.23;8.63;;;;;;;4.62;82.05;96554.19;5059653;28;20805;-64
2021/03/05 00:30:38;;;;;;;14.50;9.20;;;;;;;4.53;82.30;96555.81;5059764;28;20068;-63
2021/03/05 00:33:05;;;;;;;13.73;8.85;;;;;;;4.45;82.76;96564.19;5057831;28;20032;-64
2021/03/05 00:35:50;;;;;;;14.38;9.25;;;;;;;4.46;82.81;96567.56;5062477;28;20028;-64
2021/03/05 00:38:16;;;;;;;11.50;8.55;;;;;;;4.57;82.77;96567.47;5045017;28;20433;-64
2021/03/05 00:40:42;;;;;;;16.52;9.80;;;;;;;4.54;83.39;96569.50;5045246;28;20140;-65
2021/03/05 00:43:09;;;;;;;17.40;9.43;;;;;;;4.62;83.06;96536.13;5059422;28;20543;-64
2021/03/05 00:45:35;;;;;;;17.02;9.88;;;;;;;4.46;82.93;96559.84;5065899;28;20052;-64
2021/03/05 00:48:01;;;;;;;18.35;10.10;;;;;;;4.52;83.55;96561.88;5043398;28;20136;-67
2021/03/05 00:50:29;;;;;;;14.18;9.40;;;;;;;4.59;83.34;96563.00;5043985;28;20043;-67
2021/03/05 00:52:55;;;;;;;17.65;9.73;;;;;;;4.58;83.73;96553.63;5055619;28;20049;-64
2021/03/05 00:55:25;;;;;;;17.17;10.85;;;;;;;4.66;83.71;96564.09;5046618;28;20519;-64
2021/03/05 00:57:55;;;;;;;14.35;8.95;;;;;;;4.61;84.23;96544.81;5038760;28;20045;-64
2021/03/05 01:00:23;;;;;;;15.50;10.00;;;;;;;4.62;83.77;96560.16;5063257;28;20163;-63
2021/03/05 01:02:49;;;;;;;15.55;10.05;;;;;;;4.70;83.43;96541.44;5057981;28;20131;-64
2021/03/05 01:05:16;;;;;;;16.15;9.38;;;;;;;4.62;83.81;96536.94;5044027;28;20192;-64
2021/03/05 01:07:42;;;;;;;13.90;9.40;;;;;;;4.58;83.94;96543.31;5042876;28;20048;-64
2021/03/05 01:10:16;;;;;;;12.73;8.70;;;;;;;4.72;83.55;96562.75;5050173;28;20664;-63
2021/03/05 01:12:42;;;;;;;13.50;8.93;;;;;;;4.75;83.37;96561.66;5036878;28;20694;-64
2021/03/05 01:15:08;;;;;;;12.20;8.40;;;;;;;4.76;83.49;96547.78;5054911;28;20037;-63
2021/03/05 01:17:35;;;;;;;11.93;7.15;;;;;;;4.82;83.36;96542.09;5057904;28;20045;-65
2021/03/05 01:20:07;;;;;;;9.03;6.67;;;;;;;4.77;83.04;96539.13;5032125;28;20052;-65
2021/03/05 01:22:33;;;;;;;11.85;6.20;;;;;;;4.67;82.91;96539.09;5039511;28;20036;-65
2021/03/05 01:24:59;;;;;;;12.40;6.53;;;;;;;4.60;83.27;96525.13;5056309;28;20040;-64
2021/03/05 01:27:25;;;;;;;8.00;5.47;;;;;;;4.65;81.97;96528.91;5058642;28;20512;-64
2021/03/05 01:29:51;;;;;;;9.52;5.43;;;;;;;4.74;82.36;96534.22;5057933;28;20041;-65
2021/03/05 01:32:18;;;;;;;8.60;5.05;;;;;;;4.79;82.30;96530.28;5061028;28;20072;-64
2021/03/05 01:34:44;;;;;;;12.85;6.40;;;;;;;4.69;83.17;96535.44;5046112;28;20064;-63
2021/03/05 01:37:10;;;;;;;9.65;6.53;;;;;;;4.54;83.55;96528.25;5045013;28;20041;-64
2021/03/05 01:39:36;;;;;;;10.70;6.35;;;;;;;4.65;83.25;96522.97;5043967;28;20052;-62
2021/03/05 01:42:02;;;;;;;9.13;6.22;;;;;;;4.75;82.66;96538.44;5045158;28;20459;-65
2021/03/05 01:44:28;;;;;;;9.20;6.30;;;;;;;4.71;82.63;96529.34;5060599;28;20048;-64
2021/03/05 01:46:55;;;;;;;8.68;5.95;;;;;;;4.81;82.41;96528.41;5061306;28;20071;-63
2021/03/05 01:49:21;;;;;;;11.98;7.15;;;;;;;4.82;82.35;96535.16;5057985;28;20052;-62
2021/03/05 01:51:47;;;;;;;10.68;6.28;;;;;;;4.78;82.76;96530.44;5039642;28;20041;-63
2021/03/05 01:54:13;;;;;;;10.00;6.80;;;;;;;4.86;82.24;96522.81;5042112;28;20052;-64
2021/03/05 01:56:45;;;;;;;10.82;6.50;;;;;;;4.74;83.07;96526.50;5043951;28;20067;-64
2021/03/05 01:59:12;;;;;;;10.98;6.93;;;;;;;4.58;83.39;96542.50;5057939;28;20127;-64
2021/03/05 02:01:40;;;;;;;12.70;7.22;;;;;;;4.46;83.78;96527.13;5062492;28;20049;-64
2021/03/05 02:04:12;;;;;;;12.60;6.43;;;;;;;4.53;83.47;96529.19;5058454;28;20037;-64
2021/03/05 02:06:58;;;;;;;9.07;6.55;;;;;;;4.59;82.79;96533.81;5056120;28;20051;-62
2021/03/05 02:09:24;;;;;;;10.43;7.03;;;;;;;4.53;83.19;96524.88;5060188;28;20389;-64
2021/03/05 02:11:51;;;;;;;10.07;6.90;;;;;;;4.70;82.88;96541.44;5041855;28;20436;-64
2021/03/05 02:14:18;;;;;;;12.20;7.47;;;;;;;4.73;82.89;96542.91;5057997;28;20424;-64
2021/03/05 02:17:03;;;;;;;12.07;8.13;;;;;;;4.63;83.16;96535.16;5061716;28;20064;-67
2021/03/05 02:19:56;;;;;;;9.95;7.38;;;;;;;4.69;83.46;96534.63;5055762;28;20052;-64
2021/03/05 02:22:40;;;;;;;9.18;6.97;;;;;;;4.88;82.15;96538.97;5060259;28;20036;-64
2021/03/05 02:25:33;;;;;;;11.10;7.80;;;;;;;4.68;83.28;96538.97;5059181;28;20496;-63
2021/03/05 02:28:18;;;;;;;12.68;9.07;;;;;;;4.61;83.36;96532.72;5059085;28;20049;-63
2021/03/05 02:30:57;;;;;;;11.85;8.50;;;;;;;4.62;83.08;96533.56;5039319;28;20056;-64
2021/03/05 02:33:29;;;;;;;9.70;7.28;;;;;;;4.76;82.21;96540.88;5054977;28;20140;-63
2021/03/05 02:35:58;;;;;;;11.90;7.47;;;;;;;4.76;82.78;96542.63;5040109;28;20063;-63
2021/03/05 02:38:30;;;;;;;13.68;7.97;;;;;;;4.75;82.54;96541.03;5060831;28;20044;-63
2021/03/05 02:40:57;;;;;;;10.13;7.18;;;;;;;4.87;81.95;96537.38;5036454;28;20175;-63
2021/03/05 02:43:25;;;;;;;;;;;;;;;4.77;82.49;96536.56;5041510;28;20059;-64
2021/03/05 02:46:01;;;;;;;13.32;8.27;;;;;;;4.78;82.39;96536.38;5057458;28;19963;-64
2021/03/05 02:48:36;;;;;;;11.50;7.95;;;;;;;4.84;82.12;96535.03;5062326;28;20048;-63
2021/03/05 02:51:06;;;;;;;10.55;7.97;;;;;;;4.90;81.72;96534.50;5061470;28;20053;-65
2021/03/05 02:53:34;;;;;;;11.43;8.23;;;;;;;4.95;81.76;96550.38;5042183;28;20051;-64
2021/03/05 02:56:08;;;;;;;10.95;8.30;;;;;;;4.97;81.93;96547.66;5057514;28;20052;-63
2021/03/05 02:58:35;;;;;;;10.50;8.18;;;;;;;4.95;81.96;96547.78;5058693;28;20045;-64
2021/03/05 03:01:01;;;;;;;12.00;8.77;;;;;;;4.97;82.37;96543.31;5058341;28;20366;-64
2021/03/05 03:03:29;;;;;;;13.48;9.57;;;;;;;5.02;82.46;96541.16;5057582;28;20537;-63
2021/03/05 03:05:56;;;;;;;11.65;8.82;;;;;;;4.93;82.06;96552.28;5055965;28;20468;-63
2021/03/05 03:08:23;;;;;;;13.20;9.20;;;;;;;4.71;82.98;96532.72;5038638;28;20120;-64
2021/03/05 03:10:50;;;;;;;;;;;;;;;4.79;82.87;96542.38;5060298;28;20079;-63
2021/03/05 03:13:17;;;;;;;12.98;8.02;;;;;;;4.88;81.53;96537.22;5062734;28;20295;-64
2021/03/05 03:15:44;;;;;;;11.60;8.20;;;;;;;4.88;81.72;96552.69;5063627;28;20037;-64
2021/03/05 03:18:13;;;;;;;11.75;7.80;;;;;;;4.85;82.14;96554.75;5062536;28;20083;-65
2021/03/05 03:20:42;;;;;;;12.65;8.90;;;;;;;5.00;82.18;96555.94;5060434;28;20123;-64
2021/03/05 03:23:08;;;;;;;9.95;7.47;;;;;;;5.03;81.18;96560.03;5040641;28;20125;-63
2021/03/05 03:25:34;;;;;;;11.68;7.85;;;;;;;4.82;82.47;96560.97;5048026;28;20041;-64
2021/03/05 03:28:01;;;;;;;12.40;8.40;;;;;;;4.96;81.58;96571.84;5061317;28;20053;-64
2021/03/05 03:30:27;;;;;;;10.70;7.88;;;;;;;5.02;81.52;96577.28;5055197;28;20072;-64
2021/03/05 03:32:54;;;;;;;11.98;8.30;;;;;;;4.94;81.71;96556.50;5062406;28;20122;-65
2021/03/05 03:35:24;;;;;;;10.32;7.82;;;;;;;5.00;81.90;96565.47;5047403;28;20094;-66
2021/03/05 03:38:09;;;;;;;14.38;7.90;;;;;;;4.88;81.82;96560.44;5042015;28;20068;-64
2021/03/05 03:40:37;;;;;;;13.50;9.30;;;;;;;4.68;82.66;96566.53;5036134;28;20056;-64
2021/03/05 03:43:04;;;;;;;13.02;9.07;;;;;;;4.36;83.32;96556.44;5065559;28;20028;-65
2021/03/05 03:45:32;;;;;;;11.60;8.35;;;;;;;4.40;82.45;96565.53;5033475;28;20040;-65
2021/03/05 03:47:59;;;;;;;;;;;;;;;4.53;82.23;96580.75;5060791;28;20052;-64
2021/03/05 03:50:38;;;;;;;12.90;9.18;;;;;;;4.54;81.98;96575.47;5066608;28;19954;-64
2021/03/05 03:53:11;;;;;;;12.07;9.13;;;;;;;4.51;81.98;96564.59;5044780;28;20032;-63
2021/03/05 03:55:38;;;;;;;12.40;9.23;;;;;;;4.63;81.41;96572.06;5064839;28;20043;-64
2021/03/05 03:58:05;;;;;;;14.45;9.95;;;;;;;4.64;81.94;96578.88;5042770;28;20040;-62
2021/03/05 04:00:34;;;;;;;15.73;9.35;;;;;;;4.77;81.34;96582.97;5059974;28;20053;-64
2021/03/05 04:03:04;;;;;;;12.77;9.57;;;;;;;4.87;81.33;96579.44;5042053;28;20540;-64
2021/03/05 04:05:37;;;;;;;14.65;9.68;;;;;;;4.86;81.41;96582.16;5058099;28;20041;-64
2021/03/05 04:08:04;;;;;;;14.50;10.10;;;;;;;4.86;81.75;96588.13;5058079;28;20040;-65
2021/03/05 04:10:31;;;;;;;11.95;8.82;;;;;;;4.91;81.92;96585.16;5061277;28;20476;-64
2021/03/05 04:12:57;;;;;;;15.02;9.63;;;;;;;4.95;81.54;96591.66;5042514;28;20053;-64
2021/03/05 04:15:25;;;;;;;14.27;9.85;;;;;;;5.00;81.01;96594.66;5062255;28;20036;-64
2021/03/05 04:17:51;;;;;;;14.27;8.88;;;;;;;5.00;81.42;96597.22;5060636;28;20073;-64
2021/03/05 04:20:22;;;;;;;16.35;9.95;;;;;;;5.13;81.14;96593.56;5044790;28;20056;-64
2021/03/05 04:22:51;;;;;;;16.48;9.65;;;;;;;5.11;82.42;96596.28;5059387;28;20044;-64
2021/03/05 04:25:19;;;;;;;15.05;10.68;;;;;;;5.00;82.14;96597.22;5060606;28;20039;-64
2021/03/05 04:27:45;;;;;;;22.65;15.00;;;;;;;4.92;81.95;96602.25;5050011;28;20045;-62
2021/03/05 04:30:12;;;;;;;21.45;12.30;;;;;;;4.98;80.23;96596.56;5060663;28;20064;-64
2021/03/05 04:32:40;;;;;;;30.70;16.83;;;;;;;4.97;81.83;96599.25;5061921;28;20055;-64
2021/03/05 04:35:09;;;;;;;42.25;22.88;;;;;;;4.81;81.14;96594.66;5062851;28;20032;-64
2021/03/05 04:37:36;;;;;;;34.45;19.88;;;;;;;4.92;81.59;96604.81;5043926;28;20124;-63
2021/03/05 04:40:07;;;;;;;18.25;11.13;;;;;;;4.83;81.95;96598.72;5061890;28;20048;-64
2021/03/05 04:42:33;;;;;;;14.02;10.13;;;;;;;4.84;82.78;96609.84;5043236;28;20049;-64
2021/03/05 04:44:59;;;;;;;13.98;9.90;;;;;;;4.79;82.48;96599.94;5061395;28;20485;-64
2021/03/05 04:47:26;;;;;;;17.30;11.85;;;;;;;4.85;83.45;96612.28;5042192;28;20499;-65
2021/03/05 04:49:52;;;;;;;13.50;9.23;;;;;;;4.82;82.98;96611.72;5065381;28;20048;-63
2021/03/05 04:52:19;;;;;;;15.52;11.80;;;;;;;4.69;83.52;96599.91;5060630;28;20053;-63
2021/03/05 04:54:45;;;;;;;13.23;10.15;;;;;;;4.76;84.04;96615.66;5061234;28;20047;-64
2021/03/05 04:57:11;;;;;;;18.85;12.73;;;;;;;4.78;83.40;96618.09;5063930;28;20067;-64
2021/03/05 04:59:37;;;;;;;12.98;10.15;;;;;;;4.88;82.60;96606.84;5064828;28;20033;-63
2021/03/05 05:02:03;;;;;;;14.70;10.57;;;;;;;4.88;83.52;96613.78;5059547;28;20040;-64
2021/03/05 05:04:30;;;;;;;13.98;10.38;;;;;;;4.81;83.71;96623.00;5060478;28;20037;-63
2021/03/05 05:06:56;;;;;;;16.38;10.60;;;;;;;4.63;84.70;96617.69;5045464;28;20044;-64
2021/03/05 05:09:22;;;;;;;14.88;10.90;;;;;;;4.69;85.13;96617.16;5048026;28;20482;-63
2021/03/05 05:11:49;;;;;;;16.10;10.50;;;;;;;4.74;84.87;96625.31;5059060;28;20119;-64
2021/03/05 05:14:15;;;;;;;15.35;11.27;;;;;;;4.72;84.25;96631.53;5063476;28;20370;-64
2021/03/05 05:16:41;;;;;;;14.70;10.73;;;;;;;4.75;85.23;96633.88;5060968;28;20048;-64
2021/03/05 05:19:07;;;;;;;15.75;10.98;;;;;;;4.76;84.90;96638.06;5060470;28;20048;-63
2021/03/05 05:21:33;;;;;;;13.50;10.02;;;;;;;4.79;84.63;96635.22;5058114;28;20588;-63
2021/03/05 05:24:00;;;;;;;15.05;10.00;;;;;;;4.47;85.68;96643.97;5062858;28;20119;-64
2021/03/05 05:26:27;;;;;;;10.20;7.20;;;;;;;4.45;84.35;96635.56;5050167;28;20134;-64
2021/03/05 05:28:53;;;;;;;12.02;6.70;;;;;;;4.49;84.36;96642.09;5062411;28;20055;-63
2021/03/05 05:31:19;;;;;;;8.20;6.72;;;;;;;4.28;85.22;96635.22;5045444;28;20044;-63
2021/03/05 05:33:45;;;;;;;9.10;6.50;;;;;;;4.35;85.05;96634.69;5048127;28;20052;-65
2021/03/05 05:36:11;;;;;;;7.78;5.50;;;;;;;4.23;85.41;96628.81;5041641;28;21293;-65
2021/03/05 05:38:37;;;;;;;6.20;5.20;;;;;;;4.15;84.99;96624.34;5041499;28;20048;-65
2021/03/05 05:41:04;;;;;;;6.95;5.57;;;;;;;4.25;85.42;96630.34;5059777;28;20032;-65
2021/03/05 05:43:31;;;;;;;7.70;5.68;;;;;;;4.37;84.66;96630.22;5041205;28;20044;-64
2021/03/05 05:46:06;;;;;;;11.48;6.47;;;;;;;4.28;84.91;96631.84;5057315;28;20037;-65
2021/03/05 05:48:38;;;;;;;8.93;5.97;;;;;;;4.36;85.30;96626.00;5059124;28;20131;-65
2021/03/05 05:51:13;;;;;;;14.98;8.52;;;;;;;4.32;85.36;96638.38;5060745;28;20048;-65
2021/03/05 05:53:44;;;;;;;16.65;10.32;;;;;;;4.14;86.52;96653.59;5056766;28;20056;-65
2021/03/05 05:56:15;;;;;;;10.63;6.72;;;;;;;3.89;86.07;96644.53;5056051;28;20041;-66
2021/03/05 05:58:43;;;;;;;8.38;6.75;;;;;;;4.05;84.98;96664.69;5060661;28;20052;-66
2021/03/05 06:01:10;;;;;;;9.18;6.38;;;;;;;4.04;85.24;96668.19;5041027;28;20048;-66
2021/03/05 06:03:38;;;;;;;8.70;7.30;;;;;;;3.75;85.54;96668.84;5037502;28;20059;-64
2021/03/05 06:06:05;;;;;;;8.02;7.22;;;;;;;3.55;85.39;96677.38;5042709;28;20040;-66
2021/03/05 06:08:51;;;;;;;8.10;7.30;;;;;;;3.24;83.94;96679.88;5059966;28;20460;-65
2021/03/05 06:11:17;;;;;;;8.25;7.38;;;;;;;3.28;83.98;96678.69;5060055;28;20055;-65
2021/03/05 06:13:44;;;;;;;9.18;7.85;;;;;;;3.05;84.31;96690.78;5038652;28;20045;-67
2021/03/05 06:16:15;;;;;;;7.70;6.97;;;;;;;3.06;84.38;96694.97;5061440;28;20109;-65
2021/03/05 06:18:43;;;;;;;9.88;8.82;;;;;;;3.06;84.86;96695.78;5040223;28;20499;-66
2021/03/05 06:21:13;;;;;;;7.85;6.85;;;;;;;3.26;83.49;96698.56;5057551;28;20518;-65
2021/03/05 06:24:00;;;;;;;8.55;7.75;;;;;;;3.24;83.24;96708.16;5056048;28;20032;-65
2021/03/05 06:26:30;;;;;;;8.93;7.95;;;;;;;3.28;83.15;96706.97;5062661;28;20052;-66
2021/03/05 06:29:06;;;;;;;12.18;9.77;;;;;;;2.87;84.14;96718.75;5059039;28;20049;-66
2021/03/05 06:31:34;;;;;;;8.75;7.85;;;;;;;3.29;84.03;96721.47;5059942;28;20055;-66
2021/03/05 06:34:03;;;;;;;9.20;8.25;;;;;;;3.23;82.92;96716.81;5049619;28;20041;-65
2021/03/05 06:36:29;;;;;;;13.73;11.15;;;;;;;3.12;83.72;96727.13;5047771;28;20492;-66
2021/03/05 06:38:57;;;;;;;11.45;9.90;;;;;;;2.92;83.56;96733.81;5043185;28;20136;-66
2021/03/05 06:41:28;;;;;;;11.52;9.70;;;;;;;3.09;84.13;96729.94;5057511;28;20049;-66
2021/03/05 06:43:56;;;;;;;8.07;7.28;;;;;;;3.13;81.80;96713.31;5042910;28;20223;-65
2021/03/05 06:46:41;;;;;;;12.73;9.65;;;;;;;2.76;83.16;96747.88;5059311;28;20067;-66
2021/03/05 06:49:13;;;;;;;10.27;8.70;;;;;;;2.97;82.15;96735.09;5044138;28;20043;-67
2021/03/05 06:51:40;;;;;;;12.20;9.85;;;;;;;2.90;82.86;96749.38;5063002;28;20366;-66
2021/03/05 06:54:09;;;;;;;11.70;9.27;;;;;;;2.94;84.16;96750.78;5065067;28;20112;-66
2021/03/05 06:56:37;;;;;;;9.60;8.07;;;;;;;3.08;82.68;96751.47;5062018;28;20045;-66
2021/03/05 06:59:04;;;;;;;13.27;10.48;;;;;;;2.75;84.03;96765.97;5064038;28;20392;-66
2021/03/05 07:01:32;;;;;;;11.50;9.45;;;;;;;3.04;83.99;96758.59;5049621;28;20122;-66
2021/03/05 07:04:12;;;;;;;18.70;12.30;;;;;;;3.26;83.15;96766.28;5047445;28;20048;-66
2021/03/05 07:06:39;;;;;;;14.65;11.48;;;;;;;3.16;84.66;96774.84;5060903;28;20547;-66
2021/03/05 07:09:07;;;;;;;10.07;8.70;;;;;;;3.08;83.31;96777.19;5060058;28;20123;-66
2021/03/05 07:11:43;;;;;;;10.45;8.15;;;;;;;3.15;82.16;96783.47;5059429;28;20516;-65
2021/03/05 07:14:13;;;;;;;19.52;12.98;;;;;;;2.50;84.65;96792.72;5044353;28;20072;-66
2021/03/05 07:16:42;;;;;;;14.95;10.88;;;;;;;2.59;83.45;96794.59;5046364;28;20074;-66
2021/03/05 07:19:09;;;;;;;12.20;7.95;;;;;;;2.81;81.95;96789.44;5062100;28;20412;-66
2021/03/05 07:21:41;;;;;;;12.55;9.82;;;;;;;2.54;83.42;96796.69;5062253;28;20041;-66
2021/03/05 07:24:09;;;;;;;13.23;9.77;;;;;;;2.44;83.17;96801.72;5053638;28;20036;-66
2021/03/05 07:26:43;;;;;;;14.77;10.63;;;;;;;2.51;83.61;96805.44;5058923;28;20052;-66
2021/03/05 07:29:17;;;;;;;11.18;8.25;;;;;;;2.73;82.13;96819.25;5058154;28;20465;-66
2021/03/05 07:31:44;;;;;;;10.40;7.97;;;;;;;2.96;81.50;96818.31;5061257;28;20058;-66
2021/03/05 07:34:17;;;;;;;12.93;9.10;;;;;;;2.49;81.89;96811.66;5061337;28;20126;-66
2021/03/05 07:36:50;;;;;;;10.50;8.25;;;;;;;2.31;82.92;96814.66;5045505;28;20478;-66
2021/03/05 07:39:39;;;;;;;15.10;10.20;;;;;;;2.50;82.44;96821.81;5056651;28;20059;-66
2021/03/05 07:42:08;;;;;;;12.93;9.35;;;;;;;2.43;83.41;96823.19;5062071;28;20037;-66
2021/03/05 07:44:39;;;;;;;13.77;9.82;;;;;;;2.42;83.75;96816.44;5045751;28;20437;-66
2021/03/05 07:47:10;;;;;;;13.82;9.95;;;;;;;2.80;82.49;96826.41;5058973;28;20045;-66
2021/03/05 07:49:39;;;;;;;13.80;9.73;;;;;;;2.63;82.45;96825.09;5044886;28;20437;-66
2021/03/05 07:52:07;;;;;;;17.23;11.10;;;;;;;2.35;84.17;96810.94;5057256;28;20040;-66
2021/03/05 07:54:39;;;;;;;11.55;8.65;;;;;;;2.74;81.28;96836.34;5062358;28;20127;-65
2021/03/05 07:57:06;;;;;;;9.07;7.25;;;;;;;2.58;80.04;96842.63;5059826;28;20138;-66
2021/03/05 07:59:44;;;;;;;12.70;9.15;;;;;;;2.36;82.88;96853.66;5060807;28;20044;-63
2021/03/05 08:02:11;;;;;;;12.57;8.57;;;;;;;2.59;82.02;96844.25;5060442;28;20063;-66
2021/03/05 08:04:50;;;;;;;14.68;10.80;;;;;;;2.92;81.84;96847.81;5046689;28;20044;-65
2021/03/05 08:07:18;;;;;;;14.32;10.93;;;;;;;3.28;80.50;96856.22;5061610;28;20047;-66
2021/03/05 08:09:45;;;;;;;16.98;10.73;;;;;;;3.14;81.39;96857.25;5058816;28;20056;-66
2021/03/05 08:15:08;;;;;;;10.75;8.32;;;;;;;2.72;80.52;96879.31;5060276;28;20046;-66
2021/03/05 08:17:40;;;;;;;10.00;7.63;;;;;;;2.85;80.01;96880.03;5042474;28;20047;-65
2021/03/05 08:20:09;;;;;;;15.48;11.50;;;;;;;3.05;79.86;96883.69;5060795;28;20064;-66
2021/03/05 08:23:03;;;;;;;22.08;15.77;;;;;;;2.87;80.12;96882.50;5055513;28;20136;-66
2021/03/05 08:25:30;;;;;;;28.13;15.23;;;;;;;3.08;79.70;96885.22;5061898;28;20032;-66
2021/03/05 08:27:57;;;;;;;20.83;14.18;;;;;;;3.62;79.13;96879.28;5045157;28;20507;-65
2021/03/05 08:30:26;;;;;;;13.10;10.52;;;;;;;4.04;76.84;96875.13;5057130;28;20042;-65
2021/03/05 08:32:57;;;;;;;13.07;9.80;;;;;;;3.46;78.12;96865.06;5059841;28;20055;-65
2021/03/05 08:35:30;;;;;;;15.20;10.68;;;;;;;2.94;80.60;96879.38;5059845;28;20044;-66
2021/03/05 08:37:56;;;;;;;10.88;8.60;;;;;;;3.54;77.55;96885.06;5062932;28;20036;-64
2021/03/05 08:40:24;;;;;;;12.07;9.73;;;;;;;3.34;78.70;96889.16;5044621;28;20048;-66
2021/03/05 08:42:52;;;;;;;10.38;7.75;;;;;;;3.10;78.53;96893.63;5049071;28;20041;-66
2021/03/05 08:45:18;;;;;;;13.98;9.63;;;;;;;2.89;79.76;96896.06;5060451;28;20067;-66
2021/03/05 08:48:02;;;;;;;13.23;9.70;;;;;;;3.12;79.37;96908.00;5045411;28;20500;-66
2021/03/05 08:50:31;;;;;;;14.10;10.18;;;;;;;2.77;80.75;96913.22;5044644;28;20044;-66
2021/03/05 08:53:03;;;;;;;10.68;7.95;;;;;;;2.78;80.14;96917.44;5057714;28;20044;-65
2021/03/05 08:55:31;;;;;;;10.43;7.68;;;;;;;2.82;79.08;96913.72;5061545;28;20376;-66
2021/03/05 08:57:58;;;;;;;11.05;7.75;;;;;;;2.71;78.62;96919.66;5059824;28;20040;-66
2021/03/05 09:00:32;;;;;;;10.00;7.70;;;;;;;2.57;80.53;96923.22;5054274;28;20059;-66
2021/03/05 09:03:07;;;;;;;9.38;7.70;;;;;;;2.49;80.44;96927.28;5060345;28;20040;-66
2021/03/05 09:05:38;;;;;;;13.73;9.40;;;;;;;2.88;79.06;96920.97;5057992;28;20032;-66
2021/03/05 09:08:06;;;;;;;12.50;8.25;;;;;;;2.73;79.36;96932.38;5057448;28;20052;-66
2021/03/05 09:10:39;;;;;;;10.23;7.80;;;;;;;2.61;79.29;96922.06;5047040;28;20488;-66
2021/03/05 09:13:06;;;;;;;9.15;6.95;;;;;;;2.67;78.88;96933.66;5060184;28;20115;-66
2021/03/05 09:15:42;;;;;;;16.05;10.68;;;;;;;2.61;79.92;96916.09;5058760;28;20593;-66
2021/03/05 09:18:14;;;;;;;11.88;8.27;;;;;;;3.39;77.03;96928.25;5057697;28;20119;-66
2021/03/05 09:20:51;;;;;;;13.65;9.35;;;;;;;2.64;80.17;96942.38;5060832;28;20051;-66
2021/03/05 09:23:19;;;;;;;10.88;7.05;;;;;;;2.98;79.15;96947.59;5063537;28;20048;-66
2021/03/05 09:26:01;;;;;;;9.35;6.20;;;;;;;2.78;79.54;96941.38;5059005;28;21990;-66
2021/03/05 09:28:42;;;;;;;11.73;8.02;;;;;;;2.76;79.31;96956.09;5045226;28;20045;-66
2021/03/05 09:31:26;;;;;;;12.00;8.13;;;;;;;2.32;81.20;96956.75;5056341;28;20636;-66
2021/03/05 09:33:53;;;;;;;10.30;6.93;;;;;;;2.56;80.41;96952.44;5059684;28;20082;-66
2021/03/05 09:36:21;;;;;;;9.48;6.45;;;;;;;2.92;78.30;96952.38;5058432;28;20047;-66
2021/03/05 09:39:03;;;;;;;11.75;7.90;;;;;;;2.83;78.89;96956.47;5041650;28;20527;-66
2021/03/05 09:41:31;;;;;;;8.40;6.15;;;;;;;3.13;78.07;96970.56;5060751;28;20128;-65
2021/03/05 09:44:05;;;;;;;8.45;6.18;;;;;;;3.72;77.03;96970.34;5056025;28;20037;-66
2021/03/05 09:46:34;;;;;;;8.77;6.15;;;;;;;4.29;73.40;96966.72;5058798;28;20045;-65
2021/03/05 09:49:26;;;;;;;9.93;6.25;;;;;;;4.26;72.00;96974.69;5061279;28;20044;-65
2021/03/05 09:51:52;;;;;;;10.60;6.75;;;;;;;4.38;71.75;96974.66;5059709;28;20098;-66
2021/03/05 09:54:33;;;;;;;12.45;7.95;;;;;;;3.97;73.19;96968.44;5058696;28;20036;-65
2021/03/05 09:56:59;;;;;;;11.80;7.22;;;;;;;3.90;74.20;96969.88;5058693;28;20109;-65
2021/03/05 09:59:47;;;;;;;10.98;7.20;;;;;;;3.79;74.70;96978.41;5058863;28;20090;-65
2021/03/05 10:02:20;;;;;;;10.90;6.90;;;;;;;3.29;76.14;96983.91;5044939;28;20396;-65
2021/03/05 10:04:49;;;;;;;11.00;6.88;;;;;;;3.32;74.77;96988.81;5038091;28;20040;-65
2021/03/05 10:07:18;;;;;;;8.68;5.65;;;;;;;3.75;74.32;96983.00;5057195;28;20044;-65
2021/03/05 10:09:45;;;;;;;7.68;5.65;;;;;;;3.78;73.21;96998.19;5041976;28;20119;-66
2021/03/05 10:12:11;;;;;;;10.75;6.70;;;;;;;4.06;71.78;96998.63;5060658;28;20050;-65
2021/03/05 10:14:40;;;;;;;7.07;4.95;;;;;;;3.91;73.96;97008.38;5045556;28;20051;-66
2021/03/05 10:17:07;;;;;;;12.30;6.53;;;;;;;4.17;72.69;97013.25;5024266;28;20115;-65
2021/03/05 10:19:37;;;;;;;9.75;6.03;;;;;;;4.16;72.20;97025.31;5059726;28;20053;-66
2021/03/05 10:22:04;;;;;;;8.75;5.47;;;;;;;4.00;72.39;97012.81;5061714;28;20043;-65
2021/03/05 10:24:31;;;;;;;10.02;5.72;;;;;;;4.51;71.07;97018.31;5065877;28;20056;-66
2021/03/05 10:27:19;;;;;;;11.98;6.20;;;;;;;3.97;70.91;97036.22;5062661;28;20045;-66
2021/03/05 10:29:57;;;;;;;10.65;5.30;;;;;;;3.88;71.34;97035.19;5061868;28;20040;-66
2021/03/05 10:32:29;;;;;;;7.53;4.57;;;;;;;4.28;70.16;97037.25;5061853;28;20063;-65
2021/03/05 10:34:59;;;;;;;11.20;6.25;;;;;;;4.07;70.49;97028.63;5058170;28;20061;-66
2021/03/05 10:37:25;;;;;;;6.68;4.97;;;;;;;4.17;69.09;97042.44;5061586;28;20092;-66
2021/03/05 10:39:53;;;;;;;5.00;3.90;;;;;;;4.34;67.81;97050.56;5058669;28;20050;-67
2021/03/05 10:42:21;;;;;;;9.80;6.97;;;;;;;4.82;69.25;97065.69;5050051;28;20129;-65
2021/03/05 10:44:48;;;;;;;9.50;5.72;;;;;;;4.15;69.53;97064.91;5043758;28;20049;-63
2021/03/05 10:47:18;;;;;;;5.93;4.03;;;;;;;4.34;69.78;97066.03;5063861;28;20610;-65
2021/03/05 10:49:46;;;;;;;7.32;3.97;;;;;;;4.66;69.90;97072.06;5061204;28;20048;-64
2021/03/05 10:52:18;;;;;;;5.88;4.20;;;;;;;4.32;68.44;97063.59;5044082;28;20040;-65
2021/03/05 10:54:46;;;;;;;5.20;3.30;;;;;;;4.36;69.80;97071.91;5063081;28;20418;-65
2021/03/05 10:57:14;;;;;;;5.10;3.55;;;;;;;4.62;69.16;97070.69;5061606;28;20388;-65
2021/03/05 10:59:42;;;;;;;6.07;4.15;;;;;;;4.21;68.92;97082.47;5063670;28;20045;-64
2021/03/05 11:02:08;;;;;;;6.10;4.03;;;;;;;4.71;68.25;97076.88;5063467;28;20041;-65
2021/03/05 11:04:35;;;;;;;6.32;3.90;;;;;;;4.38;70.06;97073.44;5058483;28;20045;-65
2021/03/05 11:07:02;;;;;;;16.40;8.38;;;;;;;4.63;68.22;97082.63;5046259;28;20053;-68
2021/03/05 11:09:29;;;;;;;14.57;7.07;;;;;;;5.40;65.45;97081.63;5063225;28;20055;-68
2021/03/05 11:11:56;;;;;;;7.10;4.25;;;;;;;4.83;66.74;97082.81;5046780;28;20040;-66
2021/03/05 11:14:23;;;;;;;14.55;7.60;;;;;;;5.36;67.89;97093.16;5042429;28;20499;-68
2021/03/05 11:16:51;;;;;;;18.40;9.25;;;;;;;4.77;68.12;97078.16;5046129;28;20506;-67
2021/03/05 11:19:17;;;;;;;5.93;4.15;;;;;;;5.69;64.78;97078.38;5044703;28;20054;-67
2021/03/05 11:21:44;;;;;;;4.60;3.30;;;;;;;6.20;62.29;97076.72;5042290;28;20399;-67
2021/03/05 11:24:11;;;;;;;28.20;13.18;;;;;;;5.63;64.42;97079.72;5062301;28;20044;-66
2021/03/05 11:26:37;;;;;;;11.82;6.60;;;;;;;5.14;67.44;97091.47;5066533;28;20454;-65
2021/03/05 11:29:04;;;;;;;25.67;12.80;;;;;;;5.08;67.85;97086.84;5062794;28;20052;-66
2021/03/05 11:31:30;;;;;;;7.88;4.38;;;;;;;4.88;67.79;97091.00;5046508;28;20447;-66
2021/03/05 11:33:56;;;;;;;10.52;5.75;;;;;;;5.46;65.42;97085.44;5034164;28;20036;-66
2021/03/05 11:36:23;;;;;;;5.78;3.40;;;;;;;5.06;64.77;97088.72;5040681;28;20068;-68
2021/03/05 11:38:50;;;;;;;4.53;3.42;;;;;;;4.53;67.67;97093.78;5046030;28;20102;-66
2021/03/05 11:41:19;;;;;;;19.35;9.50;;;;;;;5.21;66.87;97099.56;5045808;28;20052;-66
2021/03/05 11:43:49;;;;;;;7.22;4.53;;;;;;;5.98;65.26;97106.16;5058558;28;20042;-66
2021/03/05 11:46:18;;;;;;;4.80;4.00;;;;;;;5.79;63.80;97102.50;5042477;28;20055;-66
2021/03/05 11:48:44;;;;;;;7.07;4.03;;;;;;;5.30;64.97;97101.38;5066066;28;20520;-67